createdAt,value
2019-02-21T00:02:13.708Z,101875.89
2019-02-21T00:04:42.175Z,101876.34
2019-02-21T00:07:10.799Z,101871.06
2019-02-21T00:09:39.263Z,101873.22
2019-02-21T00:12:07.685Z,101874.94
2019-02-21T00:14:36.204Z,101879.27
2019-02-21T00:17:04.780Z,101880.95
2019-02-21T00:19:33.243Z,101877.87
2019-02-21T00:22:01.740Z,101880.47
2019-02-21T00:24:30.155Z,101876.15
2019-02-21T00:26:58.742Z,101881.78
2019-02-21T00:29:27.204Z,101882.19
2019-02-21T00:31:55.623Z,101883.50
2019-02-21T00:34:24.186Z,101879.14
2019-02-21T00:36:52.668Z,101873.92
2019-02-21T00:39:21.242Z,101875.61
2019-02-21T00:41:49.708Z,101882.57
2019-02-21T00:44:18.157Z,101885.15
2019-02-21T00:46:46.676Z,101880.80
2019-02-21T00:49:15.111Z,101880.31
2019-02-21T00:51:43.560Z,101879.88
2019-02-21T00:54:12.159Z,101880.73
2019-02-21T00:56:40.683Z,101887.66
2019-02-21T00:59:09.272Z,101884.98
2019-02-21T01:01:37.728Z,101887.97
2019-02-21T01:04:06.287Z,101884.91
2019-02-21T01:06:34.750Z,101886.59
2019-02-21T01:09:04.414Z,101890.02
2019-02-21T01:11:32.965Z,101878.27
2019-02-21T01:14:01.470Z,101886.94
2019-02-21T01:16:30.073Z,101884.30
2019-02-21T01:18:58.675Z,101889.03
2019-02-21T01:21:27.090Z,101891.15
2019-02-21T01:23:55.765Z,101898.41
2019-02-21T01:26:24.213Z,101898.41
2019-02-21T01:28:53.159Z,101900.09
2019-02-21T01:31:21.683Z,101900.53
2019-02-21T01:33:50.486Z,101901.02
2019-02-21T01:36:19.081Z,101903.17
2019-02-21T01:38:47.602Z,101900.56
2019-02-21T01:41:16.090Z,101901.91
2019-02-21T01:43:44.538Z,101901.91
2019-02-21T01:46:13.043Z,101904.06
2019-02-21T01:48:41.525Z,101904.88
2019-02-21T01:51:10.075Z,101903.55
2019-02-21T01:53:38.597Z,101903.99
2019-02-21T01:56:07.273Z,101906.59
2019-02-21T01:58:35.799Z,101903.09
2019-02-21T02:01:08.592Z,101905.70
2019-02-21T02:03:34.810Z,101905.18
2019-02-21T02:06:03.243Z,101913.84
2019-02-21T02:08:31.743Z,101909.05
2019-02-21T02:11:00.295Z,101916.45
2019-02-21T02:13:28.754Z,101914.25
2019-02-21T02:15:57.188Z,101922.92
2019-02-21T02:18:25.667Z,101926.75
2019-02-21T02:20:54.259Z,101928.91
2019-02-21T02:23:22.677Z,101930.61
2019-02-21T02:25:51.141Z,101931.91
2019-02-21T02:28:19.617Z,101928.01
2019-02-21T02:30:48.278Z,101924.95
2019-02-21T02:33:16.835Z,101931.92
2019-02-21T02:35:45.441Z,101933.66
2019-02-21T02:38:13.947Z,101930.61
2019-02-21T02:40:42.465Z,101927.56
2019-02-21T02:43:11.238Z,101927.97
2019-02-21T02:45:39.717Z,101930.17
2019-02-21T02:48:08.215Z,101930.61
2019-02-21T02:50:36.670Z,101924.59
2019-02-21T02:53:05.108Z,101937.65
2019-02-21T02:55:33.563Z,101934.23
2019-02-21T02:58:01.983Z,101934.27
2019-02-21T03:00:30.485Z,101945.54
2019-02-21T03:02:59.158Z,101941.67
2019-02-21T03:05:27.772Z,101937.81
2019-02-21T03:07:56.481Z,101936.54
2019-02-21T03:10:25.004Z,101936.17
2019-02-21T03:12:53.443Z,101934.87
2019-02-21T03:15:22.033Z,101931.37
2019-02-21T03:17:50.622Z,101931.41
2019-02-21T03:20:19.144Z,101934.91
2019-02-21T03:22:47.585Z,101932.30
2019-02-21T03:25:16.348Z,101929.77
2019-02-21T03:27:44.812Z,101931.08
2019-02-21T03:30:13.548Z,101927.20
2019-02-21T03:32:42.179Z,101926.34
2019-02-21T03:35:10.797Z,101930.25
2019-02-21T03:37:39.277Z,101932.48
2019-02-21T03:40:09.699Z,101930.33
2019-02-21T03:42:38.153Z,101931.19
2019-02-21T03:45:09.978Z,101930.78
2019-02-21T03:47:38.481Z,101929.88
2019-02-21T03:50:09.377Z,101926.42
2019-02-21T03:52:37.837Z,101932.08
2019-02-21T03:55:07.529Z,101933.38
2019-02-21T03:57:36.001Z,101927.72
2019-02-21T04:00:07.196Z,101921.66
2019-02-21T04:02:35.957Z,101925.97
2019-02-21T04:05:05.528Z,101927.28
2019-02-21T04:07:34.065Z,101918.16
2019-02-21T04:10:02.778Z,101925.50
2019-02-21T04:12:31.209Z,101923.75
2019-02-21T04:14:59.736Z,101915.89
2019-02-21T04:17:28.378Z,101914.18
2019-02-21T04:19:56.868Z,101915.45
2019-02-21T04:22:25.489Z,101906.27
2019-02-21T04:24:54.077Z,101905.78
2019-02-21T04:27:22.691Z,101905.73
2019-02-21T04:29:51.223Z,101907.05
2019-02-21T04:32:19.830Z,101905.73
2019-02-21T04:34:48.282Z,101905.70
2019-02-21T04:37:16.783Z,101908.75
2019-02-21T04:39:45.240Z,101907.78
2019-02-21T04:42:13.723Z,101903.43
2019-02-21T04:44:42.192Z,101912.98
2019-02-21T04:47:10.778Z,101912.55
2019-02-21T04:49:39.275Z,101922.88
2019-02-21T04:52:07.855Z,101909.86
2019-02-21T04:54:36.385Z,101915.03
2019-02-21T04:57:04.835Z,101919.79
2019-02-21T04:59:33.274Z,101911.53
2019-02-21T05:02:01.707Z,101908.03
2019-02-21T05:04:30.280Z,101900.59
2019-02-21T05:06:58.893Z,101909.30
2019-02-21T05:09:27.520Z,101907.95
2019-02-21T05:11:56.063Z,101916.17
2019-02-21T05:14:24.694Z,101917.07
2019-02-21T05:16:53.182Z,101902.75
2019-02-21T05:19:21.634Z,101906.66
2019-02-21T05:21:50.060Z,101908.00
2019-02-21T05:24:18.565Z,101913.69
2019-02-21T05:26:48.636Z,101912.84
2019-02-21T05:29:17.157Z,101904.54
2019-02-21T05:31:47.352Z,101905.80
2019-02-21T05:34:26.574Z,101904.05
2019-02-21T05:37:14.667Z,101907.06
2019-02-21T05:40:03.550Z,101907.06
2019-02-21T05:42:33.776Z,101906.13
2019-02-21T05:45:11.090Z,101911.34
2019-02-21T05:47:44.505Z,101907.87
2019-02-21T05:50:20.453Z,101905.68
2019-02-21T05:52:53.169Z,101905.64
2019-02-21T05:55:26.168Z,101914.75
2019-02-21T05:57:58.901Z,101909.51
2019-02-21T06:00:28.947Z,101914.67
2019-02-21T06:02:59.208Z,101915.48
2019-02-21T06:05:29.453Z,101923.73
2019-02-21T06:08:15.732Z,101918.94
2019-02-21T06:10:45.882Z,101920.64
2019-02-21T06:13:32.533Z,101922.80
2019-02-21T06:16:05.948Z,101924.55
2019-02-21T06:18:42.352Z,101924.09
2019-02-21T06:21:12.457Z,101924.87
2019-02-21T06:23:42.538Z,101930.52
2019-02-21T06:26:12.614Z,101930.52
2019-02-21T06:28:48.801Z,101935.32
2019-02-21T06:31:17.454Z,101940.48
2019-02-21T06:33:45.978Z,101948.73
2019-02-21T06:36:14.572Z,101946.13
2019-02-21T06:38:43.029Z,101950.89
2019-02-21T06:41:11.524Z,101941.34
2019-02-21T06:43:40.228Z,101941.34
2019-02-21T06:46:08.720Z,101943.08
2019-02-21T06:48:37.309Z,101941.34
2019-02-21T06:51:05.819Z,101943.98
2019-02-21T06:53:34.339Z,101945.28
2019-02-21T06:56:02.975Z,101953.55
2019-02-21T06:58:31.437Z,101954.44
2019-02-21T07:00:59.863Z,101956.22
2019-02-21T07:03:29.129Z,101961.02
2019-02-21T07:05:57.703Z,101969.28
2019-02-21T07:08:26.294Z,101972.37
2019-02-21T07:11:05.516Z,101968.06
2019-02-21T07:13:26.944Z,101977.59
2019-02-21T07:15:55.205Z,101974.58
2019-02-21T07:18:23.678Z,101975.06
2019-02-21T07:20:52.124Z,101969.09
2019-02-21T07:23:21.275Z,101962.59
2019-02-21T07:25:50.826Z,101970.88
2019-02-21T07:28:19.305Z,101978.33
2019-02-21T07:30:48.459Z,101976.63
2019-02-21T07:33:27.704Z,101982.73
2019-02-21T07:35:47.161Z,101987.56
2019-02-21T07:38:17.177Z,101986.76
2019-02-21T07:40:46.224Z,101985.94
2019-02-21T07:43:14.657Z,101977.80
2019-02-21T07:45:43.180Z,101976.13
2019-02-21T07:48:11.620Z,101988.41
2019-02-21T07:50:40.153Z,101984.95
2019-02-21T07:53:08.659Z,101986.34
2019-02-21T07:55:37.114Z,101987.72
2019-02-21T07:58:05.630Z,101992.59
2019-02-21T08:00:34.307Z,102001.34
2019-02-21T08:03:02.764Z,101995.76
2019-02-21T08:05:31.233Z,101990.17
2019-02-21T08:07:59.895Z,101992.41
2019-02-21T08:10:33.617Z,101987.67
2019-02-21T08:12:58.587Z,101996.88
2019-02-21T08:15:27.880Z,102000.38
2019-02-21T08:17:56.430Z,102008.70
2019-02-21T08:20:33.540Z,102002.27
2019-02-21T08:22:56.232Z,102000.58
2019-02-21T08:25:24.836Z,102014.17
2019-02-21T08:27:53.309Z,102012.93
2019-02-21T08:30:21.787Z,102014.68
2019-02-21T08:33:00.679Z,102015.61
2019-02-21T08:35:30.125Z,102027.86
2019-02-21T08:37:58.661Z,102027.92
2019-02-21T08:40:27.443Z,102024.04
2019-02-21T08:42:55.979Z,102022.73
2019-02-21T08:45:24.647Z,102012.34
2019-02-21T08:47:53.241Z,102021.05
2019-02-21T08:50:22.480Z,102030.69
2019-02-21T08:52:51.395Z,102032.92
2019-02-21T08:55:19.918Z,102036.89
2019-02-21T08:57:48.375Z,102045.27
2019-02-21T09:00:17.243Z,102049.71
2019-02-21T09:02:45.866Z,102045.00
2019-02-21T09:05:14.926Z,102052.41
2019-02-21T09:07:46.216Z,102053.77
2019-02-21T09:10:14.259Z,102048.58
2019-02-21T09:12:47.754Z,102050.83
2019-02-21T09:15:15.709Z,102055.67
2019-02-21T09:17:44.168Z,102060.97
2019-02-21T09:20:12.936Z,102070.67
2019-02-21T09:22:41.408Z,102064.19
2019-02-21T09:25:13.754Z,102061.59
2019-02-21T09:27:42.323Z,102051.63
2019-02-21T09:30:15.823Z,102068.68
2019-02-21T09:32:44.381Z,102066.62
2019-02-21T09:35:12.988Z,102070.64
2019-02-21T09:37:41.463Z,102061.58
2019-02-21T09:40:12.708Z,102068.27
2019-02-21T09:42:41.284Z,102072.26
2019-02-21T09:45:18.010Z,102065.80
2019-02-21T09:47:46.442Z,102062.84
2019-02-21T09:50:15.247Z,102058.92
2019-02-21T09:52:43.802Z,102058.92
2019-02-21T09:55:15.116Z,102061.15
2019-02-21T09:57:43.647Z,102062.52
2019-02-21T10:00:22.590Z,102061.25
2019-02-21T10:02:54.310Z,102063.46
2019-02-21T10:05:21.251Z,102065.23
2019-02-21T10:07:49.770Z,102065.23
2019-02-21T10:10:19.769Z,102059.98
2019-02-21T10:12:48.316Z,102059.98
2019-02-21T10:15:19.794Z,102071.31
2019-02-21T10:17:50.759Z,102068.72
2019-02-21T10:20:20.428Z,102073.50
2019-02-21T10:22:48.877Z,102077.87
2019-02-21T10:25:26.243Z,102076.55
2019-02-21T10:27:54.751Z,102078.75
2019-02-21T10:30:23.893Z,102089.24
2019-02-21T10:32:52.458Z,102093.17
2019-02-21T10:35:21.020Z,102089.28
2019-02-21T10:37:49.543Z,102095.39
2019-02-21T10:40:18.234Z,102105.88
2019-02-21T10:42:46.834Z,102101.17
2019-02-21T10:45:19.923Z,102094.28
2019-02-21T10:47:48.530Z,102092.63
2019-02-21T10:50:19.553Z,102092.70
2019-02-21T10:52:48.480Z,102094.52
2019-02-21T10:55:18.071Z,102087.55
2019-02-21T10:57:46.814Z,102083.64
2019-02-21T11:00:26.950Z,102077.07
2019-02-21T11:02:55.596Z,102080.14
2019-02-21T11:05:24.105Z,102069.21
2019-02-21T11:07:52.651Z,102078.38
2019-02-21T11:10:28.997Z,102077.52
2019-02-21T11:12:57.584Z,102079.69
2019-02-21T11:15:26.525Z,102071.38
2019-02-21T11:17:55.519Z,102065.66
2019-02-21T11:20:24.297Z,102069.09
2019-02-21T11:22:52.790Z,102062.09
2019-02-21T11:25:21.538Z,102062.02
2019-02-21T11:27:50.080Z,102067.59
2019-02-21T11:30:19.662Z,102067.42
2019-02-21T11:32:48.191Z,102060.65
2019-02-21T11:35:16.838Z,102056.60
2019-02-21T11:37:47.110Z,102053.94
2019-02-21T11:40:17.543Z,102050.52
2019-02-21T11:42:46.325Z,102055.78
2019-02-21T11:45:17.801Z,102057.98
2019-02-21T11:47:46.422Z,102047.98
2019-02-21T11:50:16.609Z,102049.79
2019-02-21T11:52:45.378Z,102047.67
2019-02-21T11:55:16.260Z,102047.33
2019-02-21T11:57:44.767Z,102044.75
2019-02-21T12:00:19.450Z,102044.80
2019-02-21T12:02:48.083Z,102045.68
2019-02-21T12:05:17.746Z,102053.59
2019-02-21T12:07:46.409Z,102061.50
2019-02-21T12:10:15.194Z,102057.13
2019-02-21T12:12:43.625Z,102056.26
2019-02-21T12:15:13.644Z,102055.40
2019-02-21T12:17:43.132Z,102055.39
2019-02-21T12:20:18.761Z,102052.77
2019-02-21T12:22:47.588Z,102054.13
2019-02-21T12:25:21.903Z,102066.44
2019-02-21T12:27:50.604Z,102068.63
2019-02-21T12:30:20.074Z,102064.70
2019-02-21T12:32:48.672Z,102064.28
2019-02-21T12:35:28.725Z,102057.24
2019-02-21T12:37:47.982Z,102060.33
2019-02-21T12:40:19.524Z,102049.84
2019-02-21T12:42:47.952Z,102045.48
2019-02-21T12:45:19.280Z,102049.03
2019-02-21T12:47:53.007Z,102045.09
2019-02-21T12:50:18.298Z,102041.17
2019-02-21T12:52:46.793Z,102053.87
2019-02-21T12:55:26.408Z,102055.20
2019-02-21T12:57:45.647Z,102060.45
2019-02-21T13:00:21.226Z,102060.04
2019-02-21T13:02:49.915Z,102060.02
2019-02-21T13:05:18.719Z,102060.00
2019-02-21T13:07:47.172Z,102055.11
2019-02-21T13:10:24.137Z,102054.20
2019-02-21T13:12:52.636Z,102048.05
2019-02-21T13:15:21.450Z,102054.09
2019-02-21T13:17:51.077Z,102050.50
2019-02-21T13:20:19.860Z,102055.67
2019-02-21T13:22:48.368Z,102056.08
2019-02-21T13:25:18.231Z,102058.28
2019-02-21T13:27:46.683Z,102057.42
2019-02-21T13:30:18.603Z,102058.78
2019-02-21T13:32:47.196Z,102059.28
2019-02-21T13:35:15.766Z,102054.56
2019-02-21T13:37:44.521Z,102058.10
2019-02-21T13:40:20.787Z,102057.27
2019-02-21T13:42:47.728Z,102061.69
2019-02-21T13:45:18.124Z,102062.56
2019-02-21T13:47:46.714Z,102055.11
2019-02-21T13:50:20.388Z,102052.50
2019-02-21T13:52:49.386Z,102057.75
2019-02-21T13:55:17.833Z,102057.30
2019-02-21T13:57:46.466Z,102057.28
2019-02-21T14:00:20.217Z,102065.59
2019-02-21T14:02:48.806Z,102061.66
2019-02-21T14:05:17.392Z,102062.52
2019-02-21T14:07:46.101Z,102065.99
2019-02-21T14:10:14.898Z,102069.91
2019-02-21T14:12:43.425Z,102067.66
2019-02-21T14:15:17.467Z,102059.23
2019-02-21T14:17:46.724Z,102066.66
2019-02-21T14:20:15.579Z,102058.33
2019-02-21T14:22:44.585Z,102060.06
2019-02-21T14:25:13.123Z,102063.20
2019-02-21T14:27:41.577Z,102056.22
2019-02-21T14:30:13.172Z,102063.27
2019-02-21T14:32:41.642Z,102056.60
2019-02-21T14:35:12.127Z,102062.91
2019-02-21T14:37:40.629Z,102066.30
2019-02-21T14:40:11.275Z,102066.27
2019-02-21T14:42:39.853Z,102060.71
2019-02-21T14:45:17.619Z,102059.45
2019-02-21T14:47:46.208Z,102055.11
2019-02-21T14:50:14.887Z,102054.69
2019-02-21T14:52:43.492Z,102060.41
2019-02-21T14:55:15.973Z,102057.36
2019-02-21T14:57:44.414Z,102061.33
2019-02-21T15:00:16.023Z,102065.28
2019-02-21T15:02:44.456Z,102065.73
2019-02-21T15:05:13.088Z,102061.38
2019-02-21T15:07:41.632Z,102067.13
2019-02-21T15:10:10.938Z,102062.72
2019-02-21T15:12:39.403Z,102060.97
2019-02-21T15:15:11.223Z,102064.06
2019-02-21T15:17:39.835Z,102054.42
2019-02-21T15:20:11.053Z,102054.02
2019-02-21T15:22:39.610Z,102057.53
2019-02-21T15:25:09.182Z,102054.02
2019-02-21T15:27:37.652Z,102055.80
2019-02-21T15:30:15.344Z,102056.22
2019-02-21T15:32:44.911Z,102059.28
2019-02-21T15:35:13.792Z,102051.84
2019-02-21T15:37:44.802Z,102056.22
2019-02-21T15:40:12.513Z,102058.84
2019-02-21T15:42:41.040Z,102050.53
2019-02-21T15:45:23.025Z,102060.64
2019-02-21T15:47:48.535Z,102072.03
2019-02-21T15:50:19.730Z,102063.28
2019-02-21T15:52:47.902Z,102062.85
2019-02-21T15:55:18.300Z,102063.27
2019-02-21T15:57:46.780Z,102063.30
2019-02-21T16:00:20.235Z,102061.12
2019-02-21T16:02:48.777Z,102066.41
2019-02-21T16:05:17.416Z,102070.33
2019-02-21T16:07:45.973Z,102067.73
2019-02-21T16:10:20.218Z,102066.86
2019-02-21T16:12:49.503Z,102072.54
2019-02-21T16:15:18.478Z,102077.80
2019-02-21T16:17:47.031Z,102079.10
2019-02-21T16:20:17.310Z,102071.67
2019-02-21T16:22:45.856Z,102078.23
2019-02-21T16:25:31.667Z,102079.99
2019-02-21T16:28:00.258Z,102082.64
2019-02-21T16:30:28.759Z,102081.79
2019-02-21T16:32:57.306Z,102080.95
2019-02-21T16:35:27.345Z,102094.94
2019-02-21T16:37:56.010Z,102087.97
2019-02-21T16:40:24.462Z,102097.59
2019-02-21T16:42:53.003Z,102097.58
2019-02-21T16:45:22.931Z,102104.14
2019-02-21T16:47:51.617Z,102108.53
2019-02-21T16:50:29.252Z,102113.35
2019-02-21T16:52:50.433Z,102126.48
2019-02-21T16:55:21.160Z,102123.86
2019-02-21T16:57:49.604Z,102131.31
2019-02-21T17:00:20.351Z,102125.20
2019-02-21T17:02:48.869Z,102132.63
2019-02-21T17:05:17.634Z,102153.66
2019-02-21T17:07:46.189Z,102151.02
2019-02-21T17:10:16.128Z,102154.96
2019-02-21T17:12:44.697Z,102164.59
2019-02-21T17:15:15.239Z,102165.89
2019-02-21T17:17:43.772Z,102165.45
2019-02-21T17:20:17.154Z,102175.97
2019-02-21T17:22:45.785Z,102170.67
2019-02-21T17:25:15.557Z,102182.05
2019-02-21T17:27:46.146Z,102185.10
2019-02-21T17:30:16.404Z,102177.67
2019-02-21T17:32:44.949Z,102177.22
2019-02-21T17:35:14.007Z,102171.98
2019-02-21T17:37:42.546Z,102177.24
2019-02-21T17:40:19.368Z,102176.35
2019-02-21T17:42:48.040Z,102176.79
2019-02-21T17:45:16.837Z,102182.48
2019-02-21T17:47:45.508Z,102185.09
2019-02-21T17:50:16.437Z,102186.40
2019-02-21T17:52:45.059Z,102182.48
2019-02-21T17:55:14.337Z,102191.66
2019-02-21T17:57:42.985Z,102200.84
2019-02-21T18:00:21.781Z,102196.91
2019-02-21T18:02:50.467Z,102195.58
2019-02-21T18:05:19.064Z,102208.27
2019-02-21T18:07:47.613Z,102205.66
2019-02-21T18:10:17.108Z,102210.42
2019-02-21T18:12:45.603Z,102210.88
2019-02-21T18:15:15.594Z,102213.50
2019-02-21T18:17:44.265Z,102215.23
2019-02-21T18:20:14.029Z,102221.78
2019-02-21T18:22:42.560Z,102215.64
2019-02-21T18:25:29.209Z,102217.83
2019-02-21T18:27:57.866Z,102220.45
2019-02-21T18:30:26.378Z,102224.83
2019-02-21T18:32:54.993Z,102217.39
2019-02-21T18:35:23.616Z,102225.72
2019-02-21T18:37:54.989Z,102218.70
2019-02-21T18:40:25.106Z,102218.73
2019-02-21T18:42:53.605Z,102219.16
2019-02-21T18:45:22.234Z,102214.80
2019-02-21T18:47:50.780Z,102224.86
2019-02-21T18:50:19.312Z,102231.00
2019-02-21T18:52:47.901Z,102235.79
2019-02-21T18:55:16.478Z,102240.17
2019-02-21T18:57:45.065Z,102234.91
2019-02-21T19:00:16.898Z,102237.53
2019-02-21T19:02:45.392Z,102239.70
2019-02-21T19:05:14.115Z,102236.66
2019-02-21T19:07:42.644Z,102237.09
2019-02-21T19:10:16.687Z,102231.84
2019-02-21T19:12:45.239Z,102232.71
2019-02-21T19:15:14.969Z,102235.77
2019-02-21T19:17:43.533Z,102235.34
2019-02-21T19:20:14.529Z,102232.71
2019-02-21T19:22:43.396Z,102229.63
2019-02-21T19:25:12.669Z,102227.45
2019-02-21T19:27:41.273Z,102229.63
2019-02-21T19:30:15.726Z,102229.63
2019-02-21T19:32:44.232Z,102232.25
2019-02-21T19:35:12.889Z,102232.69
2019-02-21T19:37:41.585Z,102238.80
2019-02-21T19:40:11.062Z,102241.44
2019-02-21T19:42:39.625Z,102244.48
2019-02-21T19:45:09.211Z,102243.62
2019-02-21T19:47:37.891Z,102238.36
2019-02-21T19:50:08.663Z,102249.70
2019-02-21T19:52:37.454Z,102254.08
2019-02-21T19:55:08.149Z,102261.94
2019-02-21T19:57:36.936Z,102265.44
2019-02-21T20:00:08.422Z,102271.57
2019-02-21T20:02:37.319Z,102275.06
2019-02-21T20:05:06.728Z,102271.11
2019-02-21T20:07:35.259Z,102275.48
2019-02-21T20:10:04.822Z,102285.08
2019-02-21T20:12:33.497Z,102293.38
2019-02-21T20:15:01.994Z,102296.00
2019-02-21T20:17:30.568Z,102290.73
2019-02-21T20:19:59.049Z,102293.35
2019-02-21T20:22:27.599Z,102300.80
2019-02-21T20:24:56.115Z,102301.65
2019-02-21T20:27:24.773Z,102308.66
2019-02-21T20:29:53.215Z,102313.43
2019-02-21T20:32:22.019Z,102316.92
2019-02-21T20:34:50.546Z,102326.55
2019-02-21T20:37:19.044Z,102330.91
2019-02-21T20:39:47.720Z,102326.55
2019-02-21T20:42:16.385Z,102330.94
2019-02-21T20:44:44.903Z,102337.94
2019-02-21T20:47:13.430Z,102339.66
2019-02-21T20:49:42.163Z,102342.23
2019-02-21T20:52:10.693Z,102337.44
2019-02-21T20:54:39.376Z,102339.19
2019-02-21T20:57:07.995Z,102337.44
2019-02-21T20:59:36.558Z,102343.53
2019-02-21T21:02:05.256Z,102342.18
2019-02-21T21:04:33.917Z,102340.88
2019-02-21T21:07:02.572Z,102343.90
2019-02-21T21:09:31.166Z,102345.66
2019-02-21T21:11:59.737Z,102356.58
2019-02-21T21:14:28.198Z,102358.30
2019-02-21T21:16:56.843Z,102352.62
2019-02-21T21:19:25.393Z,102364.86
2019-02-21T21:21:54.056Z,102360.47
2019-02-21T21:24:22.559Z,102366.55
2019-02-21T21:26:51.163Z,102377.98
2019-02-21T21:29:19.753Z,102380.62
2019-02-21T21:31:48.345Z,102380.17
2019-02-21T21:34:17.089Z,102379.71
2019-02-21T21:36:45.714Z,102379.30
2019-02-21T21:39:14.379Z,102384.48
2019-02-21T21:41:42.922Z,102388.43
2019-02-21T21:44:11.416Z,102396.30
2019-02-21T21:46:39.999Z,102398.45
2019-02-21T21:49:08.644Z,102396.23
2019-02-21T21:51:37.235Z,102408.02
2019-02-21T21:54:05.827Z,102408.45
2019-02-21T21:56:34.307Z,102401.01
2019-02-21T21:59:02.921Z,102404.94
2019-02-21T22:01:31.466Z,102419.39
2019-02-21T22:03:59.963Z,102421.58
2019-02-21T22:06:28.587Z,102417.20
2019-02-21T22:09:04.428Z,102416.33
2019-02-21T22:11:27.519Z,102405.34
2019-02-21T22:13:55.972Z,102415.45
2019-02-21T22:16:24.596Z,102417.19
2019-02-21T22:18:53.319Z,102419.80
2019-02-21T22:21:21.784Z,102425.46
2019-02-21T22:23:50.326Z,102426.31
2019-02-21T22:26:18.837Z,102426.23
2019-02-21T22:28:47.416Z,102423.60
2019-02-21T22:31:15.851Z,102423.55
2019-02-21T22:33:44.490Z,102424.42
2019-02-21T22:36:12.930Z,102431.41
2019-02-21T22:38:41.990Z,102427.52
2019-02-21T22:41:10.451Z,102431.41
2019-02-21T22:43:38.986Z,102434.91
2019-02-21T22:46:07.422Z,102434.88
2019-02-21T22:48:46.630Z,102434.83
2019-02-21T22:51:06.145Z,102434.83
2019-02-21T22:53:34.653Z,102432.57
2019-02-21T22:56:03.159Z,102432.57
2019-02-21T22:58:31.636Z,102436.05
2019-02-21T23:01:03.802Z,102443.02
2019-02-21T23:03:44.807Z,102435.55
2019-02-21T23:06:25.073Z,102443.89
2019-02-21T23:08:54.693Z,102450.83
2019-02-21T23:11:23.777Z,102451.64
2019-02-21T23:13:52.543Z,102455.52
2019-02-21T23:16:21.156Z,102459.44
2019-02-21T23:18:50.094Z,102470.78
2019-02-21T23:21:18.650Z,102468.61
2019-02-21T23:23:47.218Z,102468.61
2019-02-21T23:26:15.784Z,102470.42
2019-02-21T23:28:44.247Z,102473.48
2019-02-21T23:31:13.109Z,102473.48
2019-02-21T23:33:49.427Z,102471.28
2019-02-21T23:36:18.029Z,102469.97
2019-02-21T23:38:46.606Z,102473.45
2019-02-21T23:41:15.228Z,102470.42
2019-02-21T23:43:43.664Z,102466.48
2019-02-21T23:46:12.171Z,102463.37
2019-02-21T23:48:40.838Z,102457.63
2019-02-21T23:51:09.293Z,102466.77
2019-02-21T23:53:37.755Z,102464.52
2019-02-21T23:56:06.178Z,102467.52
2019-02-21T23:58:34.622Z,102474.06
